createdAt,value
2022-12-01T00:01:45.364Z,2
2022-12-01T00:11:45.313Z,2
2022-12-01T00:21:45.184Z,2
2022-12-01T00:31:45.390Z,1
2022-12-01T00:41:45.198Z,1
2022-12-01T00:51:45.295Z,1
2022-12-01T01:01:45.259Z,1
2022-12-01T01:11:45.324Z,1
2022-12-01T01:21:45.372Z,1
2022-12-01T01:31:45.293Z,1
2022-12-01T01:41:45.381Z,2
2022-12-01T01:51:45.289Z,1
2022-12-01T02:01:45.439Z,1
2022-12-01T02:11:45.312Z,1
2022-12-01T02:21:45.356Z,1
2022-12-01T02:31:45.282Z,1
2022-12-01T02:41:45.350Z,1
2022-12-01T02:51:45.484Z,1
2022-12-01T03:01:45.366Z,1
2022-12-01T03:11:45.478Z,1
2022-12-01T03:21:45.350Z,1
2022-12-01T03:31:45.530Z,1
2022-12-01T03:41:45.329Z,1
2022-12-01T03:51:45.455Z,1
2022-12-01T04:01:45.439Z,1
2022-12-01T04:11:45.466Z,1
2022-12-01T04:21:45.534Z,1
2022-12-01T04:31:45.517Z,1
2022-12-01T04:41:45.546Z,1
2022-12-01T04:51:45.469Z,1
2022-12-01T05:01:45.565Z,1
2022-12-01T05:11:45.450Z,1
2022-12-01T05:21:45.535Z,1
2022-12-01T05:31:45.530Z,1
2022-12-01T05:41:45.524Z,1
2022-12-01T05:51:45.640Z,1
2022-12-01T06:01:45.613Z,1
2022-12-01T06:11:48.039Z,1
2022-12-01T06:21:45.544Z,1
2022-12-01T06:31:45.693Z,1
2022-12-01T06:41:45.511Z,1
2022-12-01T06:51:45.647Z,1
2022-12-01T07:01:45.877Z,1
2022-12-01T07:11:45.633Z,1
2022-12-01T07:21:45.706Z,1
2022-12-01T07:31:45.625Z,3
2022-12-01T07:41:45.728Z,8
2022-12-01T07:51:45.634Z,18
2022-12-01T08:01:45.851Z,41
2022-12-01T08:11:45.630Z,55
2022-12-01T08:21:45.693Z,67
2022-12-01T08:31:45.805Z,76
2022-12-01T08:41:45.704Z,80
2022-12-01T08:51:45.819Z,83
2022-12-01T09:01:45.726Z,85
2022-12-01T09:11:45.806Z,88
2022-12-01T09:21:45.671Z,89
2022-12-01T09:31:45.832Z,90
2022-12-01T09:41:45.681Z,91
2022-12-01T09:51:45.797Z,92
2022-12-01T10:01:45.938Z,92
2022-12-01T10:11:45.798Z,92
2022-12-01T10:21:45.951Z,92
2022-12-01T10:31:45.971Z,92
2022-12-01T10:41:45.961Z,93
2022-12-01T10:51:57.960Z,93
2022-12-01T11:01:45.850Z,93
2022-12-01T11:11:45.831Z,93
2022-12-01T11:21:45.917Z,93
2022-12-01T11:31:45.893Z,93
2022-12-01T11:41:45.933Z,93
2022-12-01T11:51:45.824Z,93
2022-12-01T12:01:45.929Z,93
2022-12-01T12:11:46.032Z,93
2022-12-01T12:21:45.959Z,93
2022-12-01T12:31:46.047Z,93
2022-12-01T12:41:45.902Z,93
2022-12-01T12:51:46.015Z,93
2022-12-01T13:01:45.978Z,93
2022-12-01T13:11:46.081Z,93
2022-12-01T13:21:46.042Z,93
2022-12-01T13:31:46.027Z,93
2022-12-01T13:41:46.017Z,93
2022-12-01T13:51:46.167Z,92
2022-12-01T14:01:46.121Z,91
2022-12-01T14:11:46.088Z,91
2022-12-01T14:21:46.118Z,91
2022-12-01T14:31:46.084Z,89
2022-12-01T14:41:46.140Z,88
2022-12-01T14:51:46.054Z,86
2022-12-01T15:01:46.229Z,84
2022-12-01T15:11:46.048Z,80
2022-12-01T15:21:46.153Z,78
2022-12-01T15:31:46.083Z,73
2022-12-01T15:41:46.119Z,65
2022-12-01T15:51:46.251Z,52
2022-12-01T16:01:46.120Z,42
2022-12-01T16:11:46.237Z,28
2022-12-01T16:32:05.429Z,2
2022-12-01T16:41:46.208Z,2
2022-12-01T16:52:06.897Z,1
2022-12-01T17:01:46.220Z,1
2022-12-01T17:11:46.315Z,1
2022-12-01T17:21:46.173Z,1
2022-12-01T17:31:46.353Z,1
2022-12-01T17:41:46.172Z,1
2022-12-01T17:51:46.343Z,1
2022-12-01T18:01:46.257Z,1
2022-12-01T18:11:46.433Z,1
2022-12-01T18:21:46.365Z,1
2022-12-01T18:31:46.332Z,1
2022-12-01T18:41:46.370Z,1
2022-12-01T18:51:46.293Z,1
2022-12-01T19:01:46.498Z,1
2022-12-01T19:11:46.325Z,1
2022-12-01T19:21:46.387Z,1
2022-12-01T19:31:46.370Z,1
2022-12-01T19:41:46.367Z,1
2022-12-01T19:51:46.301Z,1
2022-12-01T20:01:46.405Z,1
2022-12-01T20:11:46.504Z,1
2022-12-01T20:21:46.379Z,1
2022-12-01T20:31:46.611Z,2
2022-12-01T20:41:46.400Z,1
2022-12-01T20:51:46.526Z,1
2022-12-01T21:01:46.392Z,1
2022-12-01T21:11:46.698Z,1
2022-12-01T21:21:46.837Z,1
2022-12-01T21:31:46.689Z,1
2022-12-01T21:41:46.862Z,1
2022-12-01T21:51:46.493Z,1
2022-12-01T22:01:46.610Z,1
2022-12-01T22:11:46.506Z,1
2022-12-01T22:21:46.585Z,1
2022-12-01T22:31:46.497Z,1
2022-12-01T22:41:46.568Z,1
2022-12-01T22:51:46.509Z,1
2022-12-01T23:01:46.637Z,1
2022-12-01T23:11:46.693Z,1
2022-12-01T23:21:46.563Z,1
2022-12-01T23:31:46.842Z,1
2022-12-01T23:41:46.551Z,1
2022-12-01T23:51:46.690Z,1
